createdAt,value
2018-02-12T00:00:57.484Z,998.36
2018-02-12T00:05:56.454Z,998.47
2018-02-12T00:10:56.454Z,998.45
2018-02-12T00:15:56.079Z,998.59
2018-02-12T00:20:54.830Z,998.69
2018-02-12T00:25:55.198Z,998.64
2018-02-12T00:30:53.944Z,998.67
2018-02-12T00:35:56.279Z,998.72
2018-02-12T00:40:55.247Z,998.80
2018-02-12T00:45:55.075Z,998.82
2018-02-12T00:50:53.724Z,998.85
2018-02-12T00:55:53.523Z,998.93
2018-02-12T01:00:54.086Z,998.93
2018-02-12T01:05:49.350Z,999.04
2018-02-12T01:10:44.572Z,999.13
2018-02-12T01:15:46.249Z,999.18
2018-02-12T01:20:45.163Z,999.29
2018-02-12T01:25:44.377Z,999.32
2018-02-12T01:30:40.342Z,999.32
2018-02-12T01:35:40.868Z,999.21
2018-02-12T01:40:35.612Z,999.33
2018-02-12T01:45:35.495Z,999.41
2018-02-12T01:50:34.482Z,999.40
2018-02-12T01:55:34.562Z,999.38
2018-02-12T02:00:33.321Z,999.47
2018-02-12T02:05:32.040Z,999.53
2018-02-12T02:10:31.904Z,999.54
2018-02-12T02:15:28.010Z,999.48
2018-02-12T02:20:23.450Z,999.55
2018-02-12T02:25:20.138Z,999.61
2018-02-12T02:30:19.646Z,999.62
2018-02-12T02:35:14.623Z,999.64
2018-02-12T02:40:11.250Z,999.66
2018-02-12T02:45:06.426Z,999.75
2018-02-12T02:55:10.384Z,999.73
2018-02-12T03:00:12.228Z,999.74
2018-02-12T03:05:11.801Z,999.89
2018-02-12T03:10:11.807Z,999.89
2018-02-12T03:15:10.260Z,999.98
2018-02-12T03:20:05.618Z,1000.09
2018-02-12T03:25:07.443Z,1000.11
2018-02-12T03:30:08.176Z,1000.21
2018-02-12T03:35:06.620Z,1000.25
2018-02-12T03:40:05.843Z,1000.32
2018-02-12T03:45:08.661Z,1000.35
2018-02-12T03:50:09.169Z,1000.40
2018-02-12T03:55:09.789Z,1000.46
2018-02-12T04:00:05.626Z,1000.38
2018-02-12T04:05:08.284Z,1000.58
2018-02-12T04:10:05.637Z,1000.54
2018-02-12T04:15:04.666Z,1000.60
2018-02-12T04:20:03.638Z,1000.74
2018-02-12T04:24:59.823Z,1000.78
2018-02-12T04:29:59.101Z,1000.87
2018-02-12T04:34:58.736Z,1000.87
2018-02-12T04:39:57.346Z,1000.73
2018-02-12T04:44:57.076Z,1000.88
2018-02-12T04:49:55.756Z,1000.89
2018-02-12T04:59:54.887Z,1001.22
2018-02-12T05:04:54.621Z,1001.24
2018-02-12T05:09:50.297Z,1001.23
2018-02-12T05:14:47.617Z,1001.24
2018-02-12T05:19:43.048Z,1001.31
2018-02-12T05:24:42.942Z,1001.28
2018-02-12T05:29:38.846Z,1001.30
2018-02-12T05:34:38.465Z,1001.33
2018-02-12T05:39:37.605Z,1001.44
2018-02-12T05:44:33.695Z,1001.48
2018-02-12T05:49:34.224Z,1001.52
2018-02-12T05:54:33.215Z,1001.59
2018-02-12T05:59:32.242Z,1001.71
2018-02-12T06:04:31.000Z,1001.81
2018-02-12T06:09:31.250Z,1001.88
2018-02-12T06:14:26.051Z,1001.95
2018-02-12T06:19:25.354Z,1002.17
2018-02-12T06:24:20.308Z,1002.29
2018-02-12T06:29:20.855Z,1002.28
2018-02-12T06:34:19.281Z,1002.36
2018-02-12T06:39:14.537Z,1002.43
2018-02-12T06:44:11.559Z,1002.64
2018-02-12T06:49:06.927Z,1002.61
2018-02-12T06:54:03.046Z,1002.68
2018-02-12T06:59:01.279Z,1002.77
2018-02-12T07:04:01.378Z,1002.81
2018-02-12T07:09:00.093Z,1002.88
2018-02-12T07:14:00.174Z,1002.91
2018-02-12T07:18:59.690Z,1002.99
2018-02-12T07:23:54.830Z,1003.01
2018-02-12T07:28:54.723Z,1003.04
2018-02-12T07:33:49.379Z,1003.13
2018-02-12T07:38:49.813Z,1003.17
2018-02-12T07:43:48.668Z,1003.21
2018-02-12T07:48:45.153Z,1003.26
2018-02-12T07:53:46.248Z,1003.38
2018-02-12T07:58:41.753Z,1003.42
2018-02-12T08:03:37.842Z,1003.53
2018-02-12T08:08:39.469Z,1003.61
2018-02-12T08:13:38.921Z,1003.68
2018-02-12T08:18:34.356Z,1003.72
2018-02-12T08:23:34.196Z,1003.82
2018-02-12T08:28:34.017Z,1003.87
2018-02-12T08:33:32.771Z,1004.07
2018-02-12T08:38:27.830Z,1004.11
2018-02-12T08:43:27.478Z,1004.31
2018-02-12T08:48:27.146Z,1004.37
2018-02-12T08:53:21.730Z,1004.42
2018-02-12T08:58:18.567Z,1004.39
2018-02-12T09:03:14.182Z,1004.47
2018-02-12T09:08:09.762Z,1004.56
2018-02-12T09:13:06.571Z,1004.52
2018-02-12T09:18:06.128Z,1004.66
2018-02-12T09:23:05.332Z,1004.71
2018-02-12T09:28:06.383Z,1004.73
2018-02-12T09:33:00.881Z,1004.82
2018-02-12T09:37:56.668Z,1004.83
2018-02-12T09:42:53.255Z,1004.94
2018-02-12T09:47:48.670Z,1004.97
2018-02-12T09:52:44.614Z,1005.02
2018-02-12T09:57:40.469Z,1005.15
2018-02-12T10:02:37.287Z,1005.19
2018-02-12T10:07:34.211Z,1005.22
2018-02-12T10:12:32.045Z,1005.29
2018-02-12T10:17:28.811Z,1005.43
2018-02-12T10:22:29.237Z,1005.49
2018-02-12T10:27:25.328Z,1005.56
2018-02-12T10:32:21.174Z,1005.59
2018-02-12T10:37:17.663Z,1005.72
2018-02-12T10:42:13.778Z,1005.71
2018-02-12T10:47:13.747Z,1005.69
2018-02-12T10:52:13.758Z,1005.80
2018-02-12T10:57:09.330Z,1005.80
2018-02-12T11:02:06.860Z,1005.86
2018-02-12T11:07:02.611Z,1005.92
2018-02-12T11:12:03.389Z,1005.98
2018-02-12T11:17:02.141Z,1005.97
2018-02-12T11:22:01.027Z,1005.90
2018-02-12T11:27:01.014Z,1006.04
2018-02-12T11:31:55.930Z,1006.12
2018-02-12T11:36:56.135Z,1006.15
2018-02-12T11:41:54.904Z,1006.21
2018-02-12T11:46:50.281Z,1006.30
2018-02-12T11:51:49.851Z,1006.28
2018-02-12T11:56:50.287Z,1006.31
2018-02-12T12:01:45.561Z,1006.33
2018-02-12T12:06:43.002Z,1006.43
2018-02-12T12:11:41.964Z,1006.34
2018-02-12T12:16:41.692Z,1006.41
2018-02-12T12:21:41.735Z,1006.50
2018-02-12T12:26:36.564Z,1006.40
2018-02-12T12:31:36.277Z,1006.38
2018-02-12T12:36:33.344Z,1006.36
2018-02-12T12:41:30.118Z,1006.28
2018-02-12T12:46:29.506Z,1006.31
2018-02-12T12:51:24.436Z,1006.23
2018-02-12T12:56:24.234Z,1006.27
2018-02-12T13:01:25.290Z,1006.25
2018-02-12T13:06:20.147Z,1006.33
2018-02-12T13:11:21.616Z,1006.17
2018-02-12T13:16:21.198Z,1006.19
2018-02-12T13:21:17.159Z,1006.26
2018-02-12T13:26:13.561Z,1006.13
2018-02-12T13:31:13.958Z,1006.18
2018-02-12T13:36:13.464Z,1006.20
2018-02-12T13:41:12.951Z,1006.16
2018-02-12T13:46:12.099Z,1006.16
2018-02-12T13:51:07.108Z,1006.17
2018-02-12T13:56:05.522Z,1006.15
2018-02-12T14:01:05.507Z,1006.29
2018-02-12T14:06:05.911Z,1006.21
2018-02-12T14:11:06.052Z,1006.22
2018-02-12T14:16:01.061Z,1006.28
2018-02-12T14:21:01.804Z,1006.19
2018-02-12T14:25:57.592Z,1006.26
2018-02-12T14:30:53.930Z,1006.47
2018-02-12T14:35:54.201Z,1006.41
2018-02-12T14:40:53.732Z,1006.48
2018-02-12T14:45:52.129Z,1006.39
2018-02-12T14:50:50.624Z,1006.39
2018-02-12T14:55:46.299Z,1006.29
2018-02-12T15:00:41.610Z,1006.29
2018-02-12T15:05:41.278Z,1006.36
2018-02-12T15:10:39.985Z,1006.52
2018-02-12T15:15:39.703Z,1006.82
2018-02-12T15:20:34.542Z,1007.04
2018-02-12T15:25:32.260Z,1006.94
2018-02-12T15:30:28.378Z,1006.92
2018-02-12T15:35:27.457Z,1006.94
2018-02-12T15:40:27.840Z,1007.04
2018-02-12T15:45:23.335Z,1007.10
2018-02-12T15:50:24.232Z,1007.06
2018-02-12T15:55:22.496Z,1007.16
2018-02-12T16:00:21.228Z,1007.15
2018-02-12T16:05:19.797Z,1007.22
2018-02-12T16:10:14.218Z,1007.14
2018-02-12T16:15:14.701Z,1007.21
2018-02-12T16:20:14.379Z,1007.38
2018-02-12T16:25:10.946Z,1007.43
2018-02-12T16:30:06.894Z,1007.37
2018-02-12T16:35:06.112Z,1007.47
2018-02-12T16:40:01.096Z,1007.51
2018-02-12T16:45:03.646Z,1007.53
2018-02-12T16:49:58.553Z,1007.45
2018-02-12T16:54:58.899Z,1007.60
2018-02-12T16:59:57.347Z,1007.52
2018-02-12T17:04:58.039Z,1007.69
2018-02-12T17:09:54.166Z,1007.76
2018-02-12T17:14:54.150Z,1007.82
2018-02-12T17:19:54.315Z,1007.81
2018-02-12T17:24:53.569Z,1007.86
2018-02-12T17:29:52.812Z,1007.89
2018-02-12T17:34:51.278Z,1007.95
2018-02-12T17:39:53.000Z,1008.02
2018-02-12T17:44:52.049Z,1008.03
2018-02-12T17:49:50.662Z,1008.11
2018-02-12T17:54:48.420Z,1008.12
2018-02-12T17:59:47.421Z,1008.19
2018-02-12T18:04:45.998Z,1008.17
2018-02-12T18:09:40.930Z,1008.23
2018-02-12T18:14:36.744Z,1008.23
2018-02-12T18:19:36.500Z,1008.29
2018-02-12T18:24:36.245Z,1008.28
2018-02-12T18:29:34.974Z,1008.30
2018-02-12T18:34:29.697Z,1008.33
2018-02-12T18:39:26.199Z,1008.36
2018-02-12T18:44:26.350Z,1008.32
2018-02-12T18:49:26.551Z,1008.40
2018-02-12T18:54:21.787Z,1008.44
2018-02-12T18:59:16.720Z,1008.53
2018-02-12T19:04:14.150Z,1008.51
2018-02-12T19:09:09.375Z,1008.51
2018-02-12T19:14:08.910Z,1008.56
2018-02-12T19:19:07.813Z,1008.65
2018-02-12T19:24:06.687Z,1008.66
2018-02-12T19:29:06.229Z,1008.72
2018-02-12T19:34:00.872Z,1008.66
2018-02-12T19:43:58.095Z,1008.76
2018-02-12T19:48:54.298Z,1008.79
2018-02-12T19:53:53.666Z,1008.79
2018-02-12T19:58:52.354Z,1008.84
2018-02-12T20:03:48.087Z,1008.78
2018-02-12T20:08:43.311Z,1008.85
2018-02-12T20:13:39.482Z,1008.91
2018-02-12T20:18:36.159Z,1008.82
2018-02-12T20:23:36.471Z,1008.83
2018-02-12T20:28:35.988Z,1008.86
2018-02-12T20:33:34.800Z,1008.90
2018-02-12T20:38:37.454Z,1008.98
2018-02-12T20:43:39.904Z,1008.96
2018-02-12T20:53:43.023Z,1008.99
2018-02-12T20:58:38.984Z,1008.98
2018-02-12T21:03:39.028Z,1008.94
2018-02-12T21:08:37.821Z,1009.06
2018-02-12T21:13:33.148Z,1009.04
2018-02-12T21:23:36.293Z,1008.91
2018-02-12T21:33:40.186Z,1009.03
2018-02-12T21:38:40.163Z,1009.00
2018-02-12T21:43:37.326Z,1009.03
2018-02-12T21:48:37.670Z,1009.01
2018-02-12T21:53:35.920Z,1009.00
2018-02-12T21:58:34.538Z,1009.02
2018-02-12T22:03:34.295Z,1008.96
2018-02-12T22:08:29.962Z,1008.98
2018-02-12T22:13:31.312Z,1009.00
2018-02-12T22:18:25.878Z,1008.98
2018-02-12T22:23:26.504Z,1008.96
2018-02-12T22:28:20.936Z,1008.99
2018-02-12T22:33:16.357Z,1009.01
2018-02-12T22:38:12.779Z,1008.93
2018-02-12T22:43:13.731Z,1008.91
2018-02-12T22:48:08.294Z,1008.85
2018-02-12T22:53:04.962Z,1009.03
2018-02-12T22:58:05.452Z,1008.88
2018-02-12T23:03:00.116Z,1008.96
2018-02-12T23:07:59.837Z,1008.86
2018-02-12T23:12:59.470Z,1008.89
2018-02-12T23:17:57.960Z,1008.83
2018-02-12T23:22:57.545Z,1008.74
2018-02-12T23:27:53.038Z,1008.89
2018-02-12T23:32:52.688Z,1008.90
2018-02-12T23:37:53.030Z,1008.90
2018-02-12T23:42:53.222Z,1008.81
2018-02-12T23:47:53.491Z,1008.88
2018-02-12T23:52:48.424Z,1008.88
2018-02-12T23:57:44.923Z,1008.73
